createdAt,value
2018-05-26T00:00:38.372Z,16.27
2018-05-26T00:01:38.483Z,16.27
2018-05-26T00:02:38.583Z,16.45
2018-05-26T00:03:38.667Z,16.37
2018-05-26T00:04:38.778Z,16.44
2018-05-26T00:05:38.870Z,16.44
2018-05-26T00:06:38.976Z,16.34
2018-05-26T00:07:39.072Z,16.45
2018-05-26T00:08:39.211Z,16.48
2018-05-26T00:09:39.340Z,16.44
2018-05-26T00:10:39.498Z,16.49
2018-05-26T00:11:39.612Z,16.50
2018-05-26T00:12:39.619Z,16.44
2018-05-26T00:13:39.688Z,16.53
2018-05-26T00:14:39.833Z,16.48
2018-05-26T00:15:39.953Z,16.49
2018-05-26T00:16:40.148Z,16.50
2018-05-26T00:17:40.253Z,16.48
2018-05-26T00:18:40.347Z,16.59
2018-05-26T00:19:40.499Z,16.50
2018-05-26T00:20:40.738Z,16.53
2018-05-26T00:21:40.792Z,16.56
2018-05-26T00:22:40.763Z,16.52
2018-05-26T00:23:40.942Z,16.59
2018-05-26T00:24:40.966Z,16.58
2018-05-26T00:25:41.073Z,16.45
2018-05-26T00:26:41.259Z,16.58
2018-05-26T00:27:41.413Z,16.56
2018-05-26T00:28:41.492Z,16.49
2018-05-26T00:29:41.484Z,16.52
2018-05-26T00:30:41.589Z,16.60
2018-05-26T00:31:41.671Z,16.49
2018-05-26T00:32:41.914Z,16.53
2018-05-26T00:33:41.983Z,16.59
2018-05-26T00:34:41.950Z,16.48
2018-05-26T00:35:42.096Z,16.58
2018-05-26T00:36:42.183Z,16.48
2018-05-26T00:37:42.308Z,16.42
2018-05-26T00:38:42.406Z,16.25
2018-05-26T00:39:42.504Z,16.25
2018-05-26T00:40:42.713Z,16.01
2018-05-26T00:41:42.698Z,16.03
2018-05-26T00:42:42.840Z,15.96
2018-05-26T00:43:42.936Z,15.94
2018-05-26T00:44:43.038Z,15.99
2018-05-26T00:45:43.142Z,15.89
2018-05-26T00:46:43.246Z,15.99
2018-05-26T00:47:43.359Z,16.00
2018-05-26T00:48:43.456Z,16.07
2018-05-26T00:49:43.552Z,16.09
2018-05-26T00:50:43.662Z,16.06
2018-05-26T00:51:43.753Z,16.03
2018-05-26T00:52:43.852Z,16.16
2018-05-26T00:53:43.946Z,16.26
2018-05-26T00:54:44.034Z,16.22
2018-05-26T00:55:44.162Z,16.26
2018-05-26T00:56:44.263Z,16.20
2018-05-26T00:57:44.364Z,16.22
2018-05-26T00:58:44.474Z,16.31
2018-05-26T00:59:44.572Z,16.27
2018-05-26T01:00:44.674Z,16.16
2018-05-26T01:01:44.799Z,16.14
2018-05-26T01:02:44.891Z,16.07
2018-05-26T01:03:44.997Z,15.79
2018-05-26T01:04:45.129Z,15.75
2018-05-26T01:05:45.251Z,15.72
2018-05-26T01:06:45.345Z,15.54
2018-05-26T01:07:45.434Z,15.52
2018-05-26T01:08:45.529Z,15.51
2018-05-26T01:09:45.631Z,15.56
2018-05-26T01:10:45.721Z,15.46
2018-05-26T01:11:45.912Z,15.45
2018-05-26T01:12:45.875Z,15.46
2018-05-26T01:13:45.979Z,15.49
2018-05-26T01:14:46.084Z,15.54
2018-05-26T01:15:46.179Z,15.61
2018-05-26T01:16:46.282Z,15.61
2018-05-26T01:17:46.378Z,15.78
2018-05-26T01:18:46.462Z,15.70
2018-05-26T01:19:46.600Z,15.78
2018-05-26T01:20:46.702Z,15.79
2018-05-26T01:21:46.829Z,15.78
2018-05-26T01:22:46.915Z,15.78
2018-05-26T01:23:47.013Z,15.84
2018-05-26T01:24:47.116Z,15.81
2018-05-26T01:25:47.201Z,15.88
2018-05-26T01:26:47.293Z,15.81
2018-05-26T01:27:47.378Z,15.76
2018-05-26T01:28:47.470Z,15.78
2018-05-26T01:29:47.559Z,15.82
2018-05-26T01:30:47.677Z,15.78
2018-05-26T01:31:47.797Z,15.79
2018-05-26T01:32:47.889Z,15.84
2018-05-26T01:33:48.009Z,15.79
2018-05-26T01:34:48.113Z,15.81
2018-05-26T01:35:48.196Z,15.72
2018-05-26T01:36:48.317Z,15.67
2018-05-26T01:37:48.437Z,15.74
2018-05-26T01:38:48.545Z,15.57
2018-05-26T01:39:48.646Z,15.45
2018-05-26T01:40:48.735Z,15.33
2018-05-26T01:41:48.833Z,15.24
2018-05-26T01:42:48.982Z,15.23
2018-05-26T01:43:49.073Z,15.19
2018-05-26T01:44:49.192Z,15.17
2018-05-26T01:45:49.371Z,15.23
2018-05-26T01:46:49.344Z,15.24
2018-05-26T01:47:49.461Z,15.24
2018-05-26T01:48:49.570Z,15.30
2018-05-26T01:49:49.686Z,15.33
2018-05-26T01:50:49.791Z,15.36
2018-05-26T01:51:49.876Z,15.45
2018-05-26T01:52:50.011Z,15.39
2018-05-26T01:53:50.102Z,15.43
2018-05-26T01:54:50.207Z,15.51
2018-05-26T01:55:50.301Z,15.54
2018-05-26T01:56:50.406Z,15.54
2018-05-26T01:57:50.504Z,15.49
2018-05-26T01:58:50.611Z,15.49
2018-05-26T01:59:50.712Z,15.51
2018-05-26T02:00:50.881Z,15.51
2018-05-26T02:01:50.881Z,15.49
2018-05-26T02:02:50.982Z,15.46
2018-05-26T02:03:51.129Z,15.60
2018-05-26T02:04:51.224Z,15.54
2018-05-26T02:05:51.315Z,15.54
2018-05-26T02:06:51.416Z,15.49
2018-05-26T02:07:51.515Z,15.38
2018-05-26T02:08:51.619Z,15.33
2018-05-26T02:09:51.719Z,15.15
2018-05-26T02:10:51.818Z,15.13
2018-05-26T02:11:51.917Z,15.26
2018-05-26T02:12:52.014Z,15.24
2018-05-26T02:13:52.112Z,15.24
2018-05-26T02:14:52.212Z,15.39
2018-05-26T02:15:52.389Z,15.36
2018-05-26T02:16:52.384Z,15.36
2018-05-26T02:17:52.504Z,15.28
2018-05-26T02:18:52.582Z,15.35
2018-05-26T02:19:52.701Z,15.28
2018-05-26T02:20:52.834Z,15.38
2018-05-26T02:21:52.964Z,15.38
2018-05-26T02:22:53.057Z,15.35
2018-05-26T02:23:53.156Z,15.24
2018-05-26T02:24:53.334Z,15.31
2018-05-26T02:25:53.334Z,15.27
2018-05-26T02:26:53.431Z,15.23
2018-05-26T02:27:53.536Z,15.31
2018-05-26T02:28:53.628Z,15.30
2018-05-26T02:29:53.729Z,15.26
2018-05-26T02:30:53.825Z,15.41
2018-05-26T02:31:53.924Z,15.28
2018-05-26T02:32:54.024Z,15.30
2018-05-26T02:33:54.120Z,15.30
2018-05-26T02:34:54.224Z,15.27
2018-05-26T02:35:54.337Z,15.26
2018-05-26T02:36:54.427Z,15.30
2018-05-26T02:37:54.526Z,15.33
2018-05-26T02:38:54.626Z,15.27
2018-05-26T02:39:54.722Z,15.23
2018-05-26T02:40:54.821Z,15.26
2018-05-26T02:41:54.921Z,15.20
2018-05-26T02:42:55.021Z,15.15
2018-05-26T02:43:55.122Z,15.06
2018-05-26T02:44:55.216Z,15.01
2018-05-26T02:45:55.314Z,14.94
2018-05-26T02:46:55.455Z,14.94
2018-05-26T02:47:55.530Z,14.99
2018-05-26T02:48:55.629Z,14.95
2018-05-26T02:49:55.726Z,15.02
2018-05-26T02:50:55.825Z,15.03
2018-05-26T02:51:55.929Z,15.05
2018-05-26T02:52:56.021Z,15.01
2018-05-26T02:53:56.119Z,15.01
2018-05-26T02:54:56.217Z,15.03
2018-05-26T02:55:56.315Z,15.09
2018-05-26T02:56:56.415Z,15.05
2018-05-26T02:57:56.523Z,15.02
2018-05-26T02:58:56.625Z,15.05
2018-05-26T02:59:56.723Z,15.08
2018-05-26T03:00:56.822Z,15.11
2018-05-26T03:01:56.923Z,15.08
2018-05-26T03:02:57.024Z,15.06
2018-05-26T03:03:57.121Z,15.05
2018-05-26T03:04:57.221Z,15.09
2018-05-26T03:05:57.318Z,15.09
2018-05-26T03:06:57.420Z,15.06
2018-05-26T03:07:57.516Z,14.99
2018-05-26T03:08:57.613Z,15.03
2018-05-26T03:09:57.711Z,15.03
2018-05-26T03:10:57.809Z,14.99
2018-05-26T03:11:57.908Z,15.08
2018-05-26T03:12:58.023Z,14.95
2018-05-26T03:13:58.118Z,15.03
2018-05-26T03:14:58.218Z,15.05
2018-05-26T03:15:58.316Z,15.03
2018-05-26T03:16:58.412Z,14.98
2018-05-26T03:17:58.510Z,15.01
2018-05-26T03:18:58.611Z,15.08
2018-05-26T03:19:58.707Z,15.03
2018-05-26T03:20:58.798Z,15.02
2018-05-26T03:21:58.890Z,15.03
2018-05-26T03:22:58.986Z,15.02
2018-05-26T03:23:59.087Z,14.99
2018-05-26T03:24:59.186Z,14.93
2018-05-26T03:25:59.284Z,14.90
2018-05-26T03:26:59.378Z,14.98
2018-05-26T03:27:59.476Z,14.88
2018-05-26T03:28:59.575Z,14.90
2018-05-26T03:29:59.673Z,14.91
2018-05-26T03:30:59.774Z,14.83
2018-05-26T03:31:59.873Z,14.90
2018-05-26T03:32:59.971Z,14.90
2018-05-26T03:34:00.065Z,14.94
2018-05-26T03:35:00.159Z,14.86
2018-05-26T03:36:00.268Z,14.84
2018-05-26T03:37:00.309Z,14.87
2018-05-26T03:38:00.545Z,14.91
2018-05-26T03:39:00.548Z,14.94
2018-05-26T03:40:00.676Z,14.84
2018-05-26T03:41:00.770Z,14.90
2018-05-26T03:42:00.868Z,15.01
2018-05-26T03:43:00.968Z,15.01
2018-05-26T03:44:01.095Z,14.91
2018-05-26T03:45:01.142Z,14.99
2018-05-26T03:46:01.231Z,14.99
2018-05-26T03:47:01.374Z,15.11
2018-05-26T03:48:01.521Z,15.03
2018-05-26T03:49:01.623Z,14.99
2018-05-26T03:50:01.808Z,15.06
2018-05-26T03:51:01.907Z,15.06
2018-05-26T03:52:02.202Z,15.05
2018-05-26T03:53:02.069Z,15.02
2018-05-26T03:54:02.177Z,15.01
2018-05-26T03:55:02.263Z,15.08
2018-05-26T03:56:02.350Z,14.99
2018-05-26T03:57:02.448Z,15.02
2018-05-26T03:58:02.576Z,15.05
2018-05-26T03:59:02.669Z,15.08
2018-05-26T04:00:02.761Z,15.05
2018-05-26T04:01:02.858Z,15.24
2018-05-26T04:02:02.962Z,15.20
2018-05-26T04:03:03.095Z,15.13
2018-05-26T04:04:03.178Z,15.09
2018-05-26T04:05:03.288Z,15.05
2018-05-26T04:06:03.426Z,15.02
2018-05-26T04:07:03.508Z,15.08
2018-05-26T04:08:03.599Z,15.19
2018-05-26T04:09:03.735Z,15.19
2018-05-26T04:10:03.829Z,15.20
2018-05-26T04:11:03.927Z,15.15
2018-05-26T04:12:04.027Z,15.15
2018-05-26T04:13:04.283Z,15.17
2018-05-26T04:14:04.265Z,15.23
2018-05-26T04:15:04.388Z,15.27
2018-05-26T04:16:04.493Z,15.21
2018-05-26T04:17:04.620Z,15.20
2018-05-26T04:18:04.734Z,15.24
2018-05-26T04:19:04.856Z,15.26
2018-05-26T04:20:04.975Z,15.27
2018-05-26T04:21:05.072Z,15.23
2018-05-26T04:22:05.180Z,15.20
2018-05-26T04:23:05.266Z,15.24
2018-05-26T04:24:05.368Z,15.23
2018-05-26T04:25:05.461Z,15.21
2018-05-26T04:26:05.558Z,15.31
2018-05-26T04:27:05.653Z,15.42
2018-05-26T04:28:05.773Z,15.30
2018-05-26T04:29:05.870Z,15.35
2018-05-26T04:30:05.969Z,15.39
2018-05-26T04:31:06.068Z,15.41
2018-05-26T04:32:06.167Z,15.33
2018-05-26T04:33:06.258Z,15.24
2018-05-26T04:34:06.354Z,15.24
2018-05-26T04:35:06.454Z,15.30
2018-05-26T04:36:06.552Z,15.38
2018-05-26T04:37:06.646Z,15.38
2018-05-26T04:38:06.773Z,15.42
2018-05-26T04:39:07.883Z,15.26
2018-05-26T04:40:07.880Z,15.21
2018-05-26T04:41:07.218Z,15.08
2018-05-26T04:42:07.204Z,14.83
2018-05-26T04:43:07.294Z,14.65
2018-05-26T04:44:07.437Z,14.56
2018-05-26T04:45:08.355Z,14.38
2018-05-26T04:46:07.624Z,14.35
2018-05-26T04:47:07.715Z,14.35
2018-05-26T04:48:07.746Z,14.44
2018-05-26T04:49:08.030Z,14.49
2018-05-26T04:50:07.988Z,14.60
2018-05-26T04:51:08.078Z,14.57
2018-05-26T04:52:08.175Z,14.68
2018-05-26T04:53:08.265Z,14.75
2018-05-26T04:54:08.366Z,14.91
2018-05-26T04:55:08.672Z,14.86
2018-05-26T04:56:08.549Z,14.98
2018-05-26T04:57:08.761Z,15.11
2018-05-26T04:58:08.828Z,15.21
2018-05-26T04:59:08.912Z,15.21
2018-05-26T05:00:08.945Z,15.36
2018-05-26T05:01:08.907Z,15.36
2018-05-26T05:02:09.106Z,15.41
2018-05-26T05:03:09.288Z,15.48
2018-05-26T05:04:09.197Z,15.48
2018-05-26T05:05:09.474Z,15.60
2018-05-26T05:06:09.380Z,15.64
2018-05-26T05:07:10.178Z,15.63
2018-05-26T05:08:09.649Z,15.78
2018-05-26T05:09:09.648Z,15.81
2018-05-26T05:10:09.767Z,15.86
2018-05-26T05:11:09.846Z,15.99
2018-05-26T05:12:10.051Z,15.93
2018-05-26T05:13:10.048Z,15.96
2018-05-26T05:14:10.254Z,15.94
2018-05-26T05:15:10.290Z,15.93
2018-05-26T05:16:10.268Z,15.78
2018-05-26T05:17:10.440Z,15.81
2018-05-26T05:18:10.420Z,15.76
2018-05-26T05:19:10.538Z,15.66
2018-05-26T05:20:10.671Z,15.78
2018-05-26T05:21:10.719Z,15.82
2018-05-26T05:22:10.976Z,15.86
2018-05-26T05:23:10.948Z,15.96
2018-05-26T05:24:11.040Z,16.34
2018-05-26T05:25:11.583Z,17.00
2018-05-26T05:26:11.286Z,17.54
2018-05-26T05:27:11.397Z,18.07
2018-05-26T05:28:11.534Z,18.68
2018-05-26T05:29:11.741Z,19.08
2018-05-26T05:30:11.757Z,19.42
2018-05-26T05:31:11.852Z,19.97
2018-05-26T05:32:11.970Z,20.34
2018-05-26T05:33:12.054Z,20.51
2018-05-26T05:34:12.147Z,20.65
2018-05-26T05:35:12.239Z,20.54
2018-05-26T05:36:12.314Z,20.80
2018-05-26T05:37:12.441Z,20.83
2018-05-26T05:38:12.537Z,20.77
2018-05-26T05:39:12.623Z,20.79
2018-05-26T05:40:12.736Z,21.09
2018-05-26T05:41:12.853Z,20.81
2018-05-26T05:42:12.949Z,21.14
2018-05-26T05:43:13.113Z,21.61
2018-05-26T05:44:13.149Z,21.95
2018-05-26T05:45:13.250Z,22.29
2018-05-26T05:46:13.366Z,22.68
2018-05-26T05:47:13.484Z,23.04
2018-05-26T05:48:13.577Z,23.43
2018-05-26T05:49:13.677Z,23.72
2018-05-26T05:50:13.781Z,24.01
2018-05-26T05:51:13.893Z,24.13
2018-05-26T05:52:13.999Z,24.19
2018-05-26T05:53:14.089Z,24.35
2018-05-26T05:54:14.248Z,24.23
2018-05-26T05:55:14.367Z,24.45
2018-05-26T05:56:14.481Z,24.69
2018-05-26T05:57:14.565Z,24.77
2018-05-26T05:58:14.687Z,24.91
2018-05-26T05:59:14.801Z,24.77
2018-05-26T06:00:14.925Z,24.63
2018-05-26T06:01:15.028Z,24.76
2018-05-26T06:02:15.140Z,24.98
2018-05-26T06:03:15.238Z,25.28
2018-05-26T06:04:15.346Z,25.54
2018-05-26T06:05:15.459Z,25.67
2018-05-26T06:06:15.562Z,25.79
2018-05-26T06:07:15.659Z,25.83
2018-05-26T06:08:15.784Z,25.98
2018-05-26T06:09:15.903Z,26.06
2018-05-26T06:10:16.024Z,25.94
2018-05-26T06:11:16.177Z,25.82
2018-05-26T06:12:16.287Z,25.80
2018-05-26T06:13:16.405Z,26.04
2018-05-26T06:14:16.517Z,26.02
2018-05-26T06:15:16.643Z,26.11
2018-05-26T06:16:16.757Z,26.11
2018-05-26T06:17:16.867Z,26.02
2018-05-26T06:18:17.095Z,26.04
2018-05-26T06:19:17.087Z,26.01
2018-05-26T06:20:17.242Z,25.98
2018-05-26T06:21:17.349Z,25.86
2018-05-26T06:22:17.449Z,25.79
2018-05-26T06:23:17.555Z,25.59
2018-05-26T06:24:17.669Z,25.39
2018-05-26T06:25:17.791Z,25.15
2018-05-26T06:26:17.899Z,25.05
2018-05-26T06:27:18.039Z,24.87
2018-05-26T06:28:18.147Z,24.75
2018-05-26T06:29:18.258Z,24.57
2018-05-26T06:30:18.366Z,24.32
2018-05-26T06:31:18.499Z,24.20
2018-05-26T06:32:18.608Z,24.23
2018-05-26T06:33:18.716Z,24.00
2018-05-26T06:34:18.822Z,23.85
2018-05-26T06:35:18.961Z,23.77
2018-05-26T06:36:19.076Z,23.79
2018-05-26T06:37:19.184Z,23.68
2018-05-26T06:38:19.291Z,23.50
2018-05-26T06:39:19.409Z,23.62
2018-05-26T06:40:19.517Z,23.61
2018-05-26T06:41:19.630Z,23.61
2018-05-26T06:42:19.731Z,23.46
2018-05-26T06:43:19.841Z,23.39
2018-05-26T06:44:19.944Z,23.43
2018-05-26T06:45:20.064Z,23.38
2018-05-26T06:46:20.156Z,23.29
2018-05-26T06:47:20.254Z,23.39
2018-05-26T06:48:20.363Z,23.34
2018-05-26T06:49:20.469Z,23.40
2018-05-26T06:50:20.577Z,23.40
2018-05-26T06:51:20.706Z,23.46
2018-05-26T06:52:20.789Z,23.60
2018-05-26T06:53:20.895Z,23.55
2018-05-26T06:54:21.000Z,23.62
2018-05-26T06:55:21.106Z,23.67
2018-05-26T06:56:21.212Z,23.68
2018-05-26T06:57:21.323Z,23.70
2018-05-26T06:58:21.431Z,23.62
2018-05-26T06:59:21.535Z,23.50
2018-05-26T07:00:21.651Z,23.52
2018-05-26T07:01:21.756Z,23.62
2018-05-26T07:02:21.858Z,23.67
2018-05-26T07:03:21.967Z,23.67
2018-05-26T07:04:22.056Z,23.72
2018-05-26T07:05:22.159Z,23.68
2018-05-26T07:06:22.283Z,23.71
2018-05-26T07:07:22.380Z,23.82
2018-05-26T07:08:22.515Z,23.86
2018-05-26T07:09:22.725Z,23.85
2018-05-26T07:10:22.724Z,23.92
2018-05-26T07:11:22.830Z,23.95
2018-05-26T07:12:22.965Z,24.00
2018-05-26T07:13:23.067Z,23.86
2018-05-26T07:14:23.173Z,23.87
2018-05-26T07:15:23.277Z,23.87
2018-05-26T07:16:23.385Z,23.79
2018-05-26T07:17:23.492Z,23.95
2018-05-26T07:18:23.595Z,23.95
2018-05-26T07:19:23.700Z,23.90
2018-05-26T07:20:23.804Z,24.05
2018-05-26T07:21:23.911Z,24.12
2018-05-26T07:22:24.018Z,24.16
2018-05-26T07:23:24.124Z,24.20
2018-05-26T07:24:24.219Z,24.24
2018-05-26T07:25:24.324Z,24.20
2018-05-26T07:26:24.429Z,24.31
2018-05-26T07:27:24.536Z,24.35
2018-05-26T07:28:24.641Z,24.38
2018-05-26T07:29:24.746Z,24.34
2018-05-26T07:30:24.852Z,24.34
2018-05-26T07:31:24.962Z,24.37
2018-05-26T07:32:25.066Z,24.39
2018-05-26T07:33:25.170Z,24.44
2018-05-26T07:34:25.278Z,24.42
2018-05-26T07:35:25.385Z,24.41
2018-05-26T07:36:25.494Z,24.38
2018-05-26T07:37:25.596Z,24.19
2018-05-26T07:38:25.709Z,24.32
2018-05-26T07:39:25.837Z,24.31
2018-05-26T07:40:25.937Z,24.32
2018-05-26T07:41:26.044Z,24.44
2018-05-26T07:42:26.152Z,24.44
2018-05-26T07:43:26.254Z,24.53
2018-05-26T07:44:26.365Z,24.38
2018-05-26T07:45:26.468Z,24.52
2018-05-26T07:46:26.565Z,24.69
2018-05-26T07:47:26.670Z,24.68
2018-05-26T07:48:26.805Z,24.68
2018-05-26T07:49:26.936Z,24.50
2018-05-26T07:50:27.076Z,24.35
2018-05-26T07:51:27.198Z,24.41
2018-05-26T07:52:27.300Z,24.56
2018-05-26T07:53:27.407Z,24.63
2018-05-26T07:54:27.511Z,24.80
2018-05-26T07:55:27.622Z,24.68
2018-05-26T07:56:27.726Z,24.24
2018-05-26T07:57:27.833Z,23.83
2018-05-26T07:58:27.958Z,23.82
2018-05-26T07:59:28.111Z,23.89
2018-05-26T08:00:28.157Z,23.97
2018-05-26T08:01:28.262Z,24.10
2018-05-26T08:02:28.369Z,24.32
2018-05-26T08:03:28.475Z,24.31
2018-05-26T08:04:28.582Z,24.32
2018-05-26T08:05:28.710Z,24.37
2018-05-26T08:06:28.792Z,24.26
2018-05-26T08:07:28.899Z,24.05
2018-05-26T08:08:29.006Z,23.86
2018-05-26T08:09:29.121Z,23.83
2018-05-26T08:10:29.222Z,23.94
2018-05-26T08:11:29.331Z,24.14
2018-05-26T08:12:29.434Z,24.34
2018-05-26T08:13:29.536Z,24.38
2018-05-26T08:14:29.642Z,24.50
2018-05-26T08:15:29.751Z,24.69
2018-05-26T08:16:29.861Z,24.77
2018-05-26T08:17:29.969Z,24.88
2018-05-26T08:18:30.083Z,24.92
2018-05-26T08:19:30.192Z,25.20
2018-05-26T08:20:30.298Z,25.30
2018-05-26T08:21:30.404Z,25.39
2018-05-26T08:22:30.509Z,25.43
2018-05-26T08:23:30.613Z,25.53
2018-05-26T08:24:30.712Z,25.54
2018-05-26T08:25:30.817Z,25.68
2018-05-26T08:26:30.923Z,25.80
2018-05-26T08:27:31.030Z,25.71
2018-05-26T08:28:31.140Z,25.67
2018-05-26T08:29:31.247Z,25.82
2018-05-26T08:30:31.353Z,25.89
2018-05-26T08:31:31.447Z,25.69
2018-05-26T08:32:31.570Z,25.72
2018-05-26T08:33:31.692Z,25.83
2018-05-26T08:34:31.798Z,25.83
2018-05-26T08:35:31.910Z,25.93
2018-05-26T08:36:32.016Z,25.87
2018-05-26T08:37:32.122Z,25.57
2018-05-26T08:38:32.229Z,25.54
2018-05-26T08:39:32.333Z,25.44
2018-05-26T08:40:32.439Z,25.62
2018-05-26T08:41:32.546Z,25.62
2018-05-26T08:42:32.652Z,25.75
2018-05-26T08:43:32.758Z,25.80
2018-05-26T08:44:32.865Z,25.97
2018-05-26T08:45:32.977Z,26.02
2018-05-26T08:46:33.084Z,26.11
2018-05-26T08:47:33.192Z,26.15
2018-05-26T08:48:33.300Z,26.24
2018-05-26T08:49:33.413Z,26.11
2018-05-26T08:50:33.513Z,26.20
2018-05-26T08:51:33.620Z,26.27
2018-05-26T08:52:33.727Z,26.12
2018-05-26T08:53:33.835Z,25.86
2018-05-26T08:54:33.943Z,25.69
2018-05-26T08:55:34.051Z,25.62
2018-05-26T08:56:34.161Z,25.54
2018-05-26T08:57:34.269Z,25.52
2018-05-26T08:58:34.384Z,25.52
2018-05-26T08:59:34.485Z,25.50
2018-05-26T09:00:34.593Z,25.49
2018-05-26T09:01:34.703Z,25.27
2018-05-26T09:02:34.811Z,25.28
2018-05-26T09:03:34.923Z,25.19
2018-05-26T09:04:35.030Z,25.30
2018-05-26T09:05:35.183Z,25.46
2018-05-26T09:06:35.244Z,25.54
2018-05-26T09:07:35.352Z,25.72
2018-05-26T09:08:35.463Z,25.86
2018-05-26T09:09:35.566Z,26.01
2018-05-26T09:10:35.673Z,26.18
2018-05-26T09:11:35.778Z,26.35
2018-05-26T09:12:35.885Z,26.44
2018-05-26T09:13:35.991Z,26.57
2018-05-26T09:14:36.100Z,26.76
2018-05-26T09:15:36.211Z,26.74
2018-05-26T09:16:36.306Z,26.79
2018-05-26T09:17:36.422Z,26.87
2018-05-26T09:18:36.620Z,26.96
2018-05-26T09:19:36.635Z,26.99
2018-05-26T09:20:36.748Z,26.69
2018-05-26T09:21:36.855Z,26.74
2018-05-26T09:22:37.714Z,26.87
2018-05-26T09:23:37.240Z,26.91
2018-05-26T09:24:37.994Z,27.13
2018-05-26T09:25:37.430Z,26.98
2018-05-26T09:26:37.422Z,26.89
2018-05-26T09:27:37.448Z,26.79
2018-05-26T09:28:37.710Z,26.92
2018-05-26T09:29:37.742Z,26.58
2018-05-26T09:30:37.873Z,26.65
2018-05-26T09:31:38.058Z,26.73
2018-05-26T09:32:38.025Z,26.89
2018-05-26T09:33:38.132Z,26.96
2018-05-26T09:34:38.456Z,27.10
2018-05-26T09:35:38.510Z,27.10
2018-05-26T09:36:38.473Z,27.20
2018-05-26T09:37:38.722Z,27.11
2018-05-26T09:38:38.704Z,26.95
2018-05-26T09:39:38.917Z,27.19
2018-05-26T09:40:38.902Z,27.09
2018-05-26T09:41:39.066Z,27.11
2018-05-26T09:42:39.202Z,27.16
2018-05-26T09:43:39.547Z,27.29
2018-05-26T09:44:39.494Z,27.23
2018-05-26T09:45:39.680Z,27.46
2018-05-26T09:46:39.650Z,27.46
2018-05-26T09:47:39.748Z,27.57
2018-05-26T09:48:39.880Z,27.53
2018-05-26T09:49:40.040Z,27.46
2018-05-26T09:50:40.202Z,27.14
2018-05-26T09:51:40.246Z,27.23
2018-05-26T09:52:40.365Z,27.36
2018-05-26T09:53:40.486Z,27.41
2018-05-26T09:54:40.691Z,27.53
2018-05-26T09:55:40.882Z,27.66
2018-05-26T09:56:40.804Z,27.54
2018-05-26T09:57:40.999Z,27.50
2018-05-26T09:58:41.022Z,27.51
2018-05-26T09:59:41.282Z,27.54
2018-05-26T10:00:41.405Z,27.47
2018-05-26T10:01:41.634Z,27.50
2018-05-26T10:02:41.502Z,27.39
2018-05-26T10:03:41.531Z,26.86
2018-05-26T10:04:41.909Z,26.98
2018-05-26T10:05:41.767Z,27.10
2018-05-26T10:06:41.896Z,27.26
2018-05-26T10:07:42.164Z,27.24
2018-05-26T10:08:42.126Z,27.31
2018-05-26T10:09:42.240Z,27.51
2018-05-26T10:10:42.357Z,27.58
2018-05-26T10:11:42.472Z,27.71
2018-05-26T10:12:42.578Z,27.80
2018-05-26T10:13:42.695Z,27.35
2018-05-26T10:14:42.812Z,27.53
2018-05-26T10:15:42.919Z,27.77
2018-05-26T10:16:43.042Z,27.96
2018-05-26T10:17:43.148Z,27.94
2018-05-26T10:18:43.349Z,27.96
2018-05-26T10:19:43.345Z,28.14
2018-05-26T10:20:43.451Z,28.28
2018-05-26T10:21:43.589Z,28.35
2018-05-26T10:22:43.695Z,28.35
2018-05-26T10:23:43.838Z,28.46
2018-05-26T10:24:45.904Z,28.32
2018-05-26T10:25:44.024Z,28.46
2018-05-26T10:26:44.122Z,28.56
2018-05-26T10:27:44.231Z,28.33
2018-05-26T10:28:44.325Z,28.33
2018-05-26T10:29:44.428Z,28.38
2018-05-26T10:30:44.546Z,28.35
2018-05-26T10:31:44.652Z,28.32
2018-05-26T10:32:44.760Z,28.50
2018-05-26T10:33:44.918Z,28.47
2018-05-26T10:34:45.040Z,28.51
2018-05-26T10:35:45.153Z,28.62
2018-05-26T10:36:45.259Z,28.70
2018-05-26T10:37:45.368Z,28.82
2018-05-26T10:38:45.490Z,29.11
2018-05-26T10:39:45.591Z,29.11
2018-05-26T10:40:45.708Z,29.15
2018-05-26T10:41:45.832Z,29.13
2018-05-26T10:42:46.019Z,28.66
2018-05-26T10:43:45.990Z,28.75
2018-05-26T10:44:46.132Z,28.65
2018-05-26T10:45:46.234Z,28.46
2018-05-26T10:46:46.473Z,28.44
2018-05-26T10:47:46.519Z,28.54
2018-05-26T10:48:46.658Z,28.14
2018-05-26T10:49:46.763Z,28.32
2018-05-26T10:50:46.882Z,28.46
2018-05-26T10:51:47.047Z,28.53
2018-05-26T10:52:47.154Z,28.69
2018-05-26T10:53:47.255Z,28.75
2018-05-26T10:54:47.387Z,28.84
2018-05-26T10:55:47.620Z,29.01
2018-05-26T10:56:48.388Z,28.96
2018-05-26T10:57:47.805Z,29.03
2018-05-26T10:58:47.845Z,29.01
2018-05-26T10:59:48.037Z,29.22
2018-05-26T11:00:48.241Z,29.28
2018-05-26T11:01:50.793Z,29.37
2018-05-26T11:02:48.290Z,29.59
2018-05-26T11:03:48.434Z,29.57
2018-05-26T11:04:48.612Z,29.72
2018-05-26T11:05:48.667Z,29.72
2018-05-26T11:06:48.766Z,29.75
2018-05-26T11:07:48.870Z,29.89
2018-05-26T11:08:49.329Z,29.93
2018-05-26T11:09:49.094Z,30.02
2018-05-26T11:10:49.241Z,30.02
2018-05-26T11:11:49.384Z,29.47
2018-05-26T11:12:49.490Z,29.63
2018-05-26T11:13:49.598Z,29.68
2018-05-26T11:14:49.708Z,29.72
2018-05-26T11:15:49.816Z,29.63
2018-05-26T11:16:49.910Z,29.66
2018-05-26T11:17:50.204Z,29.70
2018-05-26T11:18:50.136Z,29.59
2018-05-26T11:19:50.235Z,29.63
2018-05-26T11:20:50.333Z,29.06
2018-05-26T11:21:50.449Z,29.03
2018-05-26T11:22:50.647Z,29.23
2018-05-26T11:23:50.665Z,29.40
2018-05-26T11:24:50.812Z,29.50
2018-05-26T11:25:50.885Z,29.59
2018-05-26T11:26:50.994Z,29.79
2018-05-26T11:27:51.102Z,29.90
2018-05-26T11:28:51.217Z,29.86
2018-05-26T11:29:51.352Z,29.33
2018-05-26T11:30:51.473Z,29.29
2018-05-26T11:31:51.550Z,29.37
2018-05-26T11:32:51.660Z,29.13
2018-05-26T11:33:51.768Z,29.13
2018-05-26T11:34:51.881Z,28.97
2018-05-26T11:35:51.987Z,29.00
2018-05-26T11:36:52.095Z,29.15
2018-05-26T11:37:52.205Z,29.19
2018-05-26T11:38:52.309Z,29.38
2018-05-26T11:39:52.423Z,29.52
2018-05-26T11:40:52.528Z,29.50
2018-05-26T11:41:52.637Z,29.75
2018-05-26T11:42:52.751Z,29.77
2018-05-26T11:43:52.863Z,29.74
2018-05-26T11:44:52.967Z,29.87
2018-05-26T11:45:53.080Z,30.11
2018-05-26T11:46:53.193Z,30.24
2018-05-26T11:47:53.299Z,30.40
2018-05-26T11:48:53.409Z,30.46
2018-05-26T11:49:53.524Z,30.47
2018-05-26T11:50:53.639Z,30.45
2018-05-26T11:51:53.751Z,30.45
2018-05-26T11:52:53.864Z,30.49
2018-05-26T11:53:53.969Z,30.57
2018-05-26T11:54:54.083Z,30.49
2018-05-26T11:55:54.193Z,30.47
2018-05-26T11:56:54.302Z,30.49
2018-05-26T11:57:54.414Z,30.49
2018-05-26T11:58:54.529Z,30.53
2018-05-26T11:59:54.624Z,30.75
2018-05-26T12:00:54.745Z,30.31
2018-05-26T12:01:54.895Z,30.38
2018-05-26T12:02:54.962Z,30.50
2018-05-26T12:03:55.074Z,30.65
2018-05-26T12:04:55.185Z,30.72
2018-05-26T12:05:55.295Z,30.54
2018-05-26T12:06:55.402Z,30.62
2018-05-26T12:07:55.514Z,30.68
2018-05-26T12:08:55.627Z,30.65
2018-05-26T12:09:55.732Z,30.71
2018-05-26T12:10:55.903Z,30.72
2018-05-26T12:11:55.952Z,30.83
2018-05-26T12:12:56.068Z,30.72
2018-05-26T12:13:56.179Z,30.75
2018-05-26T12:14:56.293Z,30.71
2018-05-26T12:15:56.405Z,30.78
2018-05-26T12:16:56.512Z,30.78
2018-05-26T12:17:56.621Z,30.69
2018-05-26T12:18:56.728Z,30.81
2018-05-26T12:19:56.846Z,30.96
2018-05-26T12:20:56.962Z,30.93
2018-05-26T12:21:57.061Z,31.02
2018-05-26T12:22:57.173Z,30.98
2018-05-26T12:23:57.282Z,31.06
2018-05-26T12:24:57.393Z,31.08
2018-05-26T12:25:57.500Z,31.01
2018-05-26T12:26:57.675Z,30.99
2018-05-26T12:27:57.722Z,30.89
2018-05-26T12:28:57.829Z,30.72
2018-05-26T12:29:57.940Z,30.52
2018-05-26T12:30:58.053Z,30.31
2018-05-26T12:31:58.162Z,30.02
2018-05-26T12:32:58.271Z,29.84
2018-05-26T12:33:58.391Z,29.92
2018-05-26T12:34:58.511Z,30.12
2018-05-26T12:35:58.601Z,30.11
2018-05-26T12:36:58.714Z,30.09
2018-05-26T12:37:58.824Z,30.14
2018-05-26T12:38:58.935Z,30.16
2018-05-26T12:39:59.108Z,30.31
2018-05-26T12:40:59.162Z,30.38
2018-05-26T12:41:59.271Z,30.52
2018-05-26T12:42:59.383Z,30.57
2018-05-26T12:43:59.509Z,30.45
2018-05-26T12:44:59.596Z,30.54
2018-05-26T12:45:59.709Z,30.45
2018-05-26T12:46:59.817Z,30.40
2018-05-26T12:47:59.928Z,30.18
2018-05-26T12:49:00.036Z,30.19
2018-05-26T12:50:00.149Z,30.23
2018-05-26T12:51:00.259Z,30.23
2018-05-26T12:52:00.371Z,30.15
2018-05-26T12:53:00.484Z,30.18
2018-05-26T12:54:00.591Z,30.29